Batavia, OH

4:21 PM EST on December 19, 2014 (GMT -0500)
withamsville | Change Station
CLOSE
Current Station
Personal Weather Station
Location: Cincinnati, OH
Elevation: 912 ft
Nearby Weather Stations

Elev 912 ft 39.06 °N, 84.28 °W | Updated 7 seconds ago

Overcast
Overcast
30.6 °F
Feels Like 31 °F
N
2.5
Wind Variable Wind from NNE
Gusts 2.5 mph

Today
High -- | Low -- °F
--% Chance of Precip.
Yesterday
High -- | Low -- °F
Precip. -- in
7:51 AM 5:16 PM
Waning Crescent, 6% visible
Pressure 30.25 in
Visibility 10.0 miles
Clouds Overcast 2400 ft
Windchill 31 °F
Dew Point -6 °F
Humidity 20%
Rainfall 0.00 in
Snow Depth Not available.
UV 0 out of 12
Pollen .10 out of 12
Air Quality Not available.
Flu Activity Not available.
METAR KI69 192056Z AUTO 12003KT 10SM OVC024 00/M05 A3025 RMK AO1

More Conditions Fewer Conditions

Pressure 30.25 in
Visibility 10.0 miles
Clouds Overcast 2400 ft
Windchill 31 °F
Dew Point -6 °F
Humidity 20%
Rainfall 0.00 in
Snow Depth Not available.
UV 0 out of 12
Pollen .10 out of 12
Air Quality Not available.
Flu Activity Not available.
METAR KI69 192056Z AUTO 12003KT 10SM OVC024 00/M05 A3025 RMK AO1

More Conditions Fewer Conditions

10-Day Weather Forecast

Almanac

Astronomy

Dec. 19, 2014 Rise Set
Actual Time
Civil Twilight
Nautical Twilight
Astronomical Twilight
Moon
Length of Visible Light
Length of Day
Tomorrow will be .
, % of the Moon is Illuminated

Today's Extremes

State Highs State Lows

Community

WunderPhotos

Upload Photos

1,779,057 photos uploaded!

WunderBlogs® & News

Nearby

Air Quality

  Air Quality AQ Index Pollutant
Not available.

Snow Depth

Station Depth Elevation

Earthquake Activity

City Distance Mag. Time & Date
Minimum magnitude displayed is 2.5.

Coastal Water Temperatures

Place Temperature

Nearby Weather Stations